Time;durP1;ratioP1;P1;durP2;ratioP2;P2;SDS_P1;SDS_P2;PMS_P1;PMS_P2;Temp;Humidity;BMP_temperature;BMP_pressure;BME280_temperature;BME280_humidity;BME280_pressure;Samples;Min_cycle;Max_cycle;Signal;HPM_P1;HPM_P2
2022/01/10 00:01:38;;;;;;;;;;;;;;;;;;4203943;28;1093;-58
2022/01/10 00:03:59;;;;;;;;;;;;;;;;;;4204319;28;1027;-58
2022/01/10 00:06:19;;;;;;;;;;;;;;;;;;4203912;28;1983;-57
2022/01/10 00:08:40;;;;;;;;;;;;;;;;;;4203839;28;958;-58
2022/01/10 00:11:00;;;;;;;;;;;;;;;;;;4204186;28;1017;-58
2022/01/10 00:13:20;;;;;;;;;;;;;;;;;;4204149;28;1186;-58
2022/01/10 00:15:40;;;;;;;;;;;;;;;;;;4204042;28;1275;-58
2022/01/10 00:18:01;;;;;;;;;;;;;;;;;;4203171;28;1087;-57
2022/01/10 00:20:21;;;;;;;;;;;;;;;;;;4203943;28;970;-57
2022/01/10 00:22:45;;;;;;;;;;;;;;;;;;4204085;28;935;-58
2022/01/10 00:25:06;;;;;;;;;;;;;;;;;;4201968;28;1000;-58
2022/01/10 00:27:26;;;;;;;;;;;;;;;;;;4203840;28;1098;-58
2022/01/10 00:29:46;;;;;;;;;;;;;;;;;;4204118;28;921;-58
2022/01/10 00:32:06;;;;;;;;;;;;;;;;;;4203636;28;898;-58
2022/01/10 00:34:27;;;;;;;;;;;;;;;;;;4203516;28;1018;-58
2022/01/10 00:36:47;;;;;;;;;;;;;;;;;;4203979;28;874;-57
2022/01/10 00:39:08;;;;;;;;;;;;;;;;;;4203419;28;1085;-58
2022/01/10 00:41:28;;;;;;;;;;;;;;;;;;4203730;28;926;-57
2022/01/10 00:43:51;;;;;;;;;;;;;;;;;;4204043;28;859;-57
2022/01/10 00:46:11;;;;;;;;;;;;;;;;;;4231328;28;1984;-57
2022/01/10 00:48:32;;;;;;;;;;;;;;;;;;4202462;28;974;-58
2022/01/10 00:50:52;;;;;;;;;;;;;;;;;;4203552;28;972;-57
2022/01/10 00:53:13;;;;;;;;;;;;;;;;;;4203505;28;1133;-58
2022/01/10 00:55:33;;;;;;;;;;;;;;;;;;4203775;28;966;-58
2022/01/10 00:57:53;;;;;;;;;;;;;;;;;;4210134;28;1399;-58
2022/01/10 01:00:14;;;;;;;;;;;;;;;;;;4220470;28;963;-58
2022/01/10 01:02:34;;;;;;;;;;;;;;;;;;4220051;28;961;-58
2022/01/10 01:04:55;;;;;;;;;;;;;;;;;;4220139;28;1228;-57
2022/01/10 01:07:15;;;;;;;;;;;;;;;;;;4220334;28;2062;-58
2022/01/10 01:09:35;;;;;;;;;;;;;;;;;;4220373;28;944;-58
2022/01/10 01:12:14;;;;;;;;;;;;;;;;;;4220326;28;1105;-57
2022/01/10 01:14:50;;;;;;;;;;;;;;;;;;4220194;28;960;-58
2022/01/10 01:17:13;;;;;;;;;;;;;;;;;;4220071;28;1216;-58
2022/01/10 01:20:06;;;;;;;;;;;;;;;;;;4220203;28;937;-58
2022/01/10 01:25:05;;;;;;;;;;;;;;;;;;4218303;28;1832;-58
2022/01/10 01:27:25;;;;;;;;;;;;;;;;;;4203454;28;1967;-58
2022/01/10 01:29:46;;;;;;;;;;;;;;;;;;4232889;28;1697;-58
2022/01/10 01:32:07;;;;;;;;;;;;;;;;;;4219912;28;1084;-57
2022/01/10 01:34:27;;;;;;;;;;;;;;;;;;4218700;28;950;-58
2022/01/10 01:36:51;;;;;;;;;;;;;;;;;;4219817;28;1092;-57
2022/01/10 01:39:18;;;;;;;;;;;;;;;;;;4219979;28;1147;-58
2022/01/10 01:41:41;;;;;;;;;;;;;;;;;;4218706;28;1655;-58
2022/01/10 01:44:02;;;;;;;;;;;;;;;;;;4219671;28;1162;-58
2022/01/10 01:46:23;;;;;;;;;;;;;;;;;;4218668;28;1909;-58
2022/01/10 01:48:43;;;;;;;;;;;;;;;;;;4219740;28;953;-58
2022/01/10 01:51:03;;;;;;;;;;;;;;;;;;4218832;28;971;-58
2022/01/10 01:53:24;;;;;;;;;;;;;;;;;;4219894;28;938;-57
2022/01/10 01:55:44;;;;;;;;;;;;;;;;;;4218527;28;1033;-58
2022/01/10 01:58:04;;;;;;;;;;;;;;;;;;4218278;28;1219;-58
2022/01/10 02:03:44;;;;;;;;;;;;;;;;;;4214755;28;1606;-57
2022/01/10 02:06:06;;;;;;;;;;;;;;;;;;4229030;28;1905;-58
2022/01/10 02:08:29;;;;;;;;;;;;;;;;;;4208719;28;1350;-61
2022/01/10 02:10:50;;;;;;;;;;;;;;;;;;4218013;28;961;-58
2022/01/10 02:13:11;;;;;;;;;;;;;;;;;;4217747;28;1197;-58
2022/01/10 02:15:34;;;;;;;;;;;;;;;;;;4217703;28;966;-58
2022/01/10 02:18:00;;;;;;;;;;;;;;;;;;4217426;28;1108;-58
2022/01/10 02:20:21;;;;;;;;;;;;;;;;;;4217712;28;1614;-57
2022/01/10 02:22:42;;;;;;;;;;;;;;;;;;4218518;28;1166;-58
2022/01/10 02:25:31;;;;;;;;;;;;;;;;;;4219029;28;1004;-58
2022/01/10 02:27:51;;;;;;;;;;;;;;;;;;4220674;28;1180;-57
2022/01/10 02:30:12;;;;;;;;;;;;;;;;;;4220851;28;941;-58
2022/01/10 02:32:34;;;;;;;;;;;;;;;;;;4220418;28;1252;-57
2022/01/10 02:34:55;;;;;;;;;;;;;;;;;;4220265;28;1162;-58
2022/01/10 02:37:15;;;;;;;;;;;;;;;;;;4221060;28;1243;-58
2022/01/10 02:39:36;;;;;;;;;;;;;;;;;;4220188;28;856;-58
2022/01/10 02:41:57;;;;;;;;;;;;;;;;;;4220278;28;940;-58
2022/01/10 02:44:18;;;;;;;;;;;;;;;;;;4219661;28;1651;-57
2022/01/10 02:46:38;;;;;;;;;;;;;;;;;;4223336;28;1906;-57
2022/01/10 02:49:04;;;;;;;;;;;;;;;;;;4222002;28;1289;-58
2022/01/10 02:51:25;;;;;;;;;;;;;;;;;;4221727;28;1029;-57
2022/01/10 02:53:45;;;;;;;;;;;;;;;;;;4223572;28;937;-57
2022/01/10 02:56:06;;;;;;;;;;;;;;;;;;4222162;28;1133;-57
2022/01/10 02:58:26;;;;;;;;;;;;;;;;;;4222263;28;1023;-58
2022/01/10 03:00:46;;;;;;;;;;;;;;;;;;4222543;28;948;-57
2022/01/10 03:03:07;;;;;;;;;;;;;;;;;;4222271;28;1169;-57
2022/01/10 03:05:28;;;;;;;;;;;;;;;;;;4222191;28;945;-58
2022/01/10 03:07:48;;;;;;;;;;;;;;;;;;4223357;28;1902;-58
2022/01/10 03:10:09;;;;;;;;;;;;;;;;;;4223324;28;945;-58
2022/01/10 03:12:31;;;;;;;;;;;;;;;;;;4222946;28;1153;-57
2022/01/10 03:14:51;;;;;;;;;;;;;;;;;;4222987;28;1010;-58
2022/01/10 03:17:11;;;;;;;;;;;;;;;;;;4221948;28;1060;-58
2022/01/10 03:19:32;;;;;;;;;;;;;;;;;;4221876;28;1093;-57
2022/01/10 03:21:53;;;;;;;;;;;;;;;;;;4221646;28;1211;-57
2022/01/10 03:24:13;;;;;;;;;;;;;;;;;;4222055;28;958;-58
2022/01/10 03:26:34;;;;;;;;;;;;;;;;;;4221519;28;1965;-57
2022/01/10 03:28:57;;;;;;;;;;;;;;;;;;4221943;28;991;-57
2022/01/10 03:31:18;;;;;;;;;;;;;;;;;;4221605;28;1029;-58
2022/01/10 03:33:39;;;;;;;;;;;;;;;;;;4222206;28;1147;-59
2022/01/10 03:35:59;;;;;;;;;;;;;;;;;;4221225;28;1031;-58
2022/01/10 03:38:19;;;;;;;;;;;;;;;;;;4221971;28;984;-57
2022/01/10 03:40:40;;;;;;;;;;;;;;;;;;4221573;28;1016;-58
2022/01/10 03:43:05;;;;;;;;;;;;;;;;;;4221789;28;849;-58
2022/01/10 03:45:26;;;;;;;;;;;;;;;;;;4221458;28;1624;-58
2022/01/10 03:47:46;;;;;;;;;;;;;;;;;;4221467;28;1886;-58
2022/01/10 03:50:07;;;;;;;;;;;;;;;;;;4221055;28;954;-57
2022/01/10 03:52:29;;;;;;;;;;;;;;;;;;4221763;28;1013;-57
2022/01/10 03:54:50;;;;;;;;;;;;;;;;;;4221482;28;1008;-58
2022/01/10 03:57:11;;;;;;;;;;;;;;;;;;4221778;28;849;-58
2022/01/10 03:59:31;;;;;;;;;;;;;;;;;;4221345;28;1009;-58
2022/01/10 04:01:52;;;;;;;;;;;;;;;;;;4221457;28;1195;-57
2022/01/10 04:04:14;;;;;;;;;;;;;;;;;;4221565;28;1311;-57
2022/01/10 04:06:34;;;;;;;;;;;;;;;;;;4222089;28;1909;-58
2022/01/10 04:08:55;;;;;;;;;;;;;;;;;;4221353;28;1017;-58
2022/01/10 04:11:16;;;;;;;;;;;;;;;;;;4221466;28;947;-58
2022/01/10 04:13:36;;;;;;;;;;;;;;;;;;4222438;28;1156;-57
2022/01/10 04:15:57;;;;;;;;;;;;;;;;;;4221434;28;966;-57
2022/01/10 04:18:18;;;;;;;;;;;;;;;;;;4220908;28;1309;-57
2022/01/10 04:20:39;;;;;;;;;;;;;;;;;;4222432;28;930;-58
2022/01/10 04:22:59;;;;;;;;;;;;;;;;;;4221354;28;1121;-57
2022/01/10 04:25:20;;;;;;;;;;;;;;;;;;4222146;28;979;-58
2022/01/10 04:27:41;;;;;;;;;;;;;;;;;;4221015;28;1985;-57
2022/01/10 04:30:01;;;;;;;;;;;;;;;;;;4222198;28;1185;-57
2022/01/10 04:32:23;;;;;;;;;;;;;;;;;;4221331;28;1064;-58
2022/01/10 04:34:47;;;;;;;;;;;;;;;;;;4221188;28;1125;-57
2022/01/10 04:37:08;;;;;;;;;;;;;;;;;;4222203;28;1039;-58
2022/01/10 04:39:29;;;;;;;;;;;;;;;;;;4220825;28;1045;-58
2022/01/10 04:41:50;;;;;;;;;;;;;;;;;;4220736;28;963;-58
2022/01/10 04:44:10;;;;;;;;;;;;;;;;;;4220705;28;939;-58
2022/01/10 04:46:31;;;;;;;;;;;;;;;;;;4220639;28;1057;-58
2022/01/10 04:48:51;;;;;;;;;;;;;;;;;;4221429;28;924;-58
2022/01/10 04:51:12;;;;;;;;;;;;;;;;;;4221076;28;1126;-57
2022/01/10 04:53:32;;;;;;;;;;;;;;;;;;4220603;28;998;-58
2022/01/10 04:55:53;;;;;;;;;;;;;;;;;;4220853;28;1014;-58
2022/01/10 04:58:13;;;;;;;;;;;;;;;;;;4221764;28;1129;-57
2022/01/10 05:00:33;;;;;;;;;;;;;;;;;;4218606;28;1748;-57
2022/01/10 05:02:54;;;;;;;;;;;;;;;;;;4217395;28;1633;-58
2022/01/10 05:05:14;;;;;;;;;;;;;;;;;;4220503;28;971;-61
2022/01/10 05:07:35;;;;;;;;;;;;;;;;;;4219972;28;1974;-61
2022/01/10 05:09:57;;;;;;;;;;;;;;;;;;4220272;28;1058;-61
2022/01/10 05:12:17;;;;;;;;;;;;;;;;;;4220528;28;943;-62
2022/01/10 05:14:39;;;;;;;;;;;;;;;;;;4220305;28;1088;-61
2022/01/10 05:16:59;;;;;;;;;;;;;;;;;;4220096;28;1322;-61
2022/01/10 05:19:20;;;;;;;;;;;;;;;;;;4204704;28;1822;-61
2022/01/10 05:21:41;;;;;;;;;;;;;;;;;;4189527;28;1259;-61
2022/01/10 05:24:02;;;;;;;;;;;;;;;;;;4189823;28;862;-61
2022/01/10 05:26:22;;;;;;;;;;;;;;;;;;4189521;28;1082;-57
2022/01/10 05:28:43;;;;;;;;;;;;;;;;;;4189091;28;1902;-57
2022/01/10 05:31:03;;;;;;;;;;;;;;;;;;4189272;28;1147;-57
2022/01/10 05:33:31;;;;;;;;;;;;;;;;;;4189534;28;875;-58
2022/01/10 05:35:51;;;;;;;;;;;;;;;;;;4189271;28;1212;-57
2022/01/10 05:38:12;;;;;;;;;;;;;;;;;;4204509;28;928;-58
2022/01/10 05:40:32;;;;;;;;;;;;;;;;;;4187988;28;930;-57
2022/01/10 05:42:52;;;;;;;;;;;;;;;;;;4188113;28;853;-57
2022/01/10 05:45:14;;;;;;;;;;;;;;;;;;4172870;28;1017;-57
2022/01/10 05:47:40;;;;;;;;;;;;;;;;;;4172942;28;1985;-57
2022/01/10 05:50:03;;;;;;;;;;;;;;;;;;4172929;28;1120;-57
2022/01/10 05:52:29;;;;;;;;;;;;;;;;;;4172614;28;1173;-58
2022/01/10 05:54:51;;;;;;;;;;;;;;;;;;4173154;28;960;-57
2022/01/10 05:57:11;;;;;;;;;;;;;;;;;;4172996;28;943;-57
2022/01/10 05:59:38;;;;;;;;;;;;;;;;;;4175758;28;1013;-57
2022/01/10 06:01:59;;;;;;;;;;;;;;;;;;4175603;28;1047;-57
2022/01/10 06:04:21;;;;;;;;;;;;;;;;;;4175701;28;1061;-57
2022/01/10 06:06:42;;;;;;;;;;;;;;;;;;4175107;28;923;-57
2022/01/10 06:09:02;;;;;;;;;;;;;;;;;;4175604;28;1985;-57
2022/01/10 06:11:23;;;;;;;;;;;;;;;;;;4175404;28;1242;-56
2022/01/10 06:13:45;;;;;;;;;;;;;;;;;;4190650;28;962;-58
2022/01/10 06:16:05;;;;;;;;;;;;;;;;;;4175572;28;1043;-57
2022/01/10 06:18:26;;;;;;;;;;;;;;;;;;4193318;28;1054;-57
2022/01/10 06:20:47;;;;;;;;;;;;;;;;;;4206935;28;1053;-57
2022/01/10 06:23:09;;;;;;;;;;;;;;;;;;4206056;28;1063;-57
2022/01/10 06:25:31;;;;;;;;;;;;;;;;;;4206151;28;999;-56
2022/01/10 06:27:52;;;;;;;;;;;;;;;;;;4206148;28;1905;-57
2022/01/10 06:30:12;;;;;;;;;;;;;;;;;;4205984;28;1418;-57
2022/01/10 06:32:36;;;;;;;;;;;;;;;;;;4234286;28;953;-57
2022/01/10 06:34:57;;;;;;;;;;;;;;;;;;4205903;28;983;-57
2022/01/10 06:37:17;;;;;;;;;;;;;;;;;;4206055;28;946;-57
2022/01/10 06:39:40;;;;;;;;;;;;;;;;;;4206119;28;1094;-57
2022/01/10 06:42:00;;;;;;;;;;;;;;;;;;4206349;28;934;-57
2022/01/10 06:44:21;;;;;;;;;;;;;;;;;;4206013;28;877;-57
2022/01/10 06:46:41;;;;;;;;;;;;;;;;;;4206890;28;1147;-57
2022/01/10 06:49:02;;;;;;;;;;;;;;;;;;4205833;28;1975;-58
2022/01/10 06:51:24;;;;;;;;;;;;;;;;;;4205979;28;1114;-57
2022/01/10 06:53:47;;;;;;;;;;;;;;;;;;4205790;28;1097;-57
2022/01/10 06:56:07;;;;;;;;;;;;;;;;;;4206646;28;955;-57
2022/01/10 06:58:30;;;;;;;;;;;;;;;;;;4205685;28;1001;-59
2022/01/10 07:00:51;;;;;;;;;;;;;;;;;;4205582;28;956;-57
2022/01/10 07:03:12;;;;;;;;;;;;;;;;;;4206697;28;948;-57
2022/01/10 07:05:36;;;;;;;;;;;;;;;;;;4205574;28;1069;-57
2022/01/10 07:08:05;;;;;;;;;;;;;;;;;;4205475;28;1980;-57
2022/01/10 07:10:31;;;;;;;;;;;;;;;;;;4233760;28;1377;-57
2022/01/10 07:12:52;;;;;;;;;;;;;;;;;;4205464;28;972;-57
2022/01/10 07:15:14;;;;;;;;;;;;;;;;;;4205418;28;980;-57
2022/01/10 07:17:35;;;;;;;;;;;;;;;;;;4234208;28;1068;-57
2022/01/10 07:19:58;;;;;;;;;;;;;;;;;;4233798;28;993;-57
2022/01/10 07:22:23;;;;;;;;;;;;;;;;;;4205268;28;1029;-57
2022/01/10 07:24:43;;;;;;;;;;;;;;;;;;4205541;28;1002;-57
2022/01/10 07:27:04;;;;;;;;;;;;;;;;;;4206373;28;950;-57
2022/01/10 07:29:24;;;;;;;;;;;;;;;;;;4206174;28;1975;-57
2022/01/10 07:31:44;;;;;;;;;;;;;;;;;;4206299;28;922;-57
2022/01/10 07:34:04;;;;;;;;;;;;;;;;;;4206128;28;1215;-57
2022/01/10 07:36:25;;;;;;;;;;;;;;;;;;4206063;28;1077;-58
2022/01/10 07:38:45;;;;;;;;;;;;;;;;;;4205244;28;1129;-57
2022/01/10 07:41:05;;;;;;;;;;;;;;;;;;4206120;28;920;-57
2022/01/10 07:43:25;;;;;;;;;;;;;;;;;;4206187;28;1024;-57
2022/01/10 07:45:50;;;;;;;;;;;;;;;;;;4205350;28;1028;-57
2022/01/10 07:48:10;;;;;;;;;;;;;;;;;;4205883;28;1910;-57
2022/01/10 07:50:31;;;;;;;;;;;;;;;;;;4206097;28;1187;-57
2022/01/10 07:52:51;;;;;;;;;;;;;;;;;;4206018;28;1223;-57
2022/01/10 07:55:11;;;;;;;;;;;;;;;;;;4206049;28;1186;-57
2022/01/10 07:57:32;;;;;;;;;;;;;;;;;;4206016;28;1095;-57
2022/01/10 07:59:52;;;;;;;;;;;;;;;;;;4206028;28;1035;-57
2022/01/10 08:02:12;;;;;;;;;;;;;;;;;;4205772;28;1198;-57
2022/01/10 08:04:33;;;;;;;;;;;;;;;;;;4205661;28;989;-57
2022/01/10 08:06:53;;;;;;;;;;;;;;;;;;4205881;28;1283;-58
2022/01/10 08:09:13;;;;;;;;;;;;;;;;;;4205878;28;1995;-57
2022/01/10 08:11:33;;;;;;;;;;;;;;;;;;4205621;28;1064;-57
2022/01/10 08:13:53;;;;;;;;;;;;;;;;;;4205470;28;1065;-58
2022/01/10 08:16:13;;;;;;;;;;;;;;;;;;4205679;28;1040;-57
2022/01/10 08:18:35;;;;;;;;;;;;;;;;;;4205449;28;1065;-57
2022/01/10 08:20:55;;;;;;;;;;;;;;;;;;4204372;28;1032;-57
2022/01/10 08:23:15;;;;;;;;;;;;;;;;;;4205156;28;1075;-57
2022/01/10 08:25:36;;;;;;;;;;;;;;;;;;4206257;28;877;-57
2022/01/10 08:27:56;;;;;;;;;;;;;;;;;;4205292;28;1080;-57
2022/01/10 08:30:17;;;;;;;;;;;;;;;;;;4205380;28;1198;-57
2022/01/10 08:32:37;;;;;;;;;;;;;;;;;;4205668;28;1170;-57
2022/01/10 08:34:57;;;;;;;;;;;;;;;;;;4205468;28;1274;-57
2022/01/10 08:37:18;;;;;;;;;;;;;;;;;;4205068;28;942;-58
2022/01/10 08:39:38;;;;;;;;;;;;;;;;;;4205469;28;1305;-57
2022/01/10 08:41:58;;;;;;;;;;;;;;;;;;4205266;28;1017;-57
2022/01/10 08:44:18;;;;;;;;;;;;;;;;;;4205164;28;945;-58
2022/01/10 08:46:39;;;;;;;;;;;;;;;;;;4204935;28;1049;-57
2022/01/10 08:48:59;;;;;;;;;;;;;;;;;;4205020;28;1975;-57
2022/01/10 08:51:19;;;;;;;;;;;;;;;;;;4204951;28;1048;-57
2022/01/10 08:53:39;;;;;;;;;;;;;;;;;;4205292;28;1028;-57
2022/01/10 08:56:00;;;;;;;;;;;;;;;;;;4204818;28;1309;-57
2022/01/10 08:58:21;;;;;;;;;;;;;;;;;;4204761;28;1242;-57
2022/01/10 09:00:41;;;;;;;;;;;;;;;;;;4204827;28;979;-57
2022/01/10 09:03:02;;;;;;;;;;;;;;;;;;4204791;28;1052;-57
2022/01/10 09:05:22;;;;;;;;;;;;;;;;;;4204771;28;1007;-57
2022/01/10 09:07:43;;;;;;;;;;;;;;;;;;4205006;28;1094;-57
2022/01/10 09:10:03;;;;;;;;;;;;;;;;;;4204645;28;1909;-57
2022/01/10 09:12:23;;;;;;;;;;;;;;;;;;4205203;28;964;-57
2022/01/10 09:14:43;;;;;;;;;;;;;;;;;;4204995;28;1039;-57
2022/01/10 09:17:04;;;;;;;;;;;;;;;;;;4204626;28;1252;-57
2022/01/10 09:19:24;;;;;;;;;;;;;;;;;;4204649;28;982;-57
2022/01/10 09:21:45;;;;;;;;;;;;;;;;;;4204720;28;1013;-57
2022/01/10 09:24:06;;;;;;;;;;;;;;;;;;4204762;28;1373;-57
2022/01/10 09:26:26;;;;;;;;;;;;;;;;;;4204723;28;1075;-57
2022/01/10 09:28:46;;;;;;;;;;;;;;;;;;4204398;28;1905;-57
2022/01/10 09:31:06;;;;;;;;;;;;;;;;;;4204668;28;973;-57
2022/01/10 09:33:27;;;;;;;;;;;;;;;;;;4207503;28;945;-57
2022/01/10 09:35:47;;;;;;;;;;;;;;;;;;4207499;28;1229;-58
2022/01/10 09:38:08;;;;;;;;;;;;;;;;;;4207428;28;1145;-57
2022/01/10 09:40:29;;;;;;;;;;;;;;;;;;4207731;28;1243;-57
2022/01/10 09:42:49;;;;;;;;;;;;;;;;;;4207338;28;1222;-58
2022/01/10 09:45:09;;;;;;;;;;;;;;;;;;4207389;28;1023;-57
2022/01/10 09:47:29;;;;;;;;;;;;;;;;;;4207631;28;1008;-57
2022/01/10 09:49:50;;;;;;;;;;;;;;;;;;4207188;28;1910;-57
2022/01/10 09:52:10;;;;;;;;;;;;;;;;;;4207111;28;1145;-57
2022/01/10 09:54:30;;;;;;;;;;;;;;;;;;4207252;28;1039;-57
2022/01/10 09:56:51;;;;;;;;;;;;;;;;;;4207548;28;1067;-57
2022/01/10 09:59:11;;;;;;;;;;;;;;;;;;4207052;28;962;-60
2022/01/10 10:01:32;;;;;;;;;;;;;;;;;;4207060;28;1001;-57
2022/01/10 10:03:53;;;;;;;;;;;;;;;;;;4207400;28;1020;-58
2022/01/10 10:06:14;;;;;;;;;;;;;;;;;;4207430;28;967;-58
2022/01/10 10:08:34;;;;;;;;;;;;;;;;;;4207206;28;963;-57
2022/01/10 10:10:55;;;;;;;;;;;;;;;;;;4207040;28;1096;-57
2022/01/10 10:13:15;;;;;;;;;;;;;;;;;;4206957;28;923;-58
2022/01/10 10:15:36;;;;;;;;;;;;;;;;;;4207370;28;1060;-58
2022/01/10 10:17:57;;;;;;;;;;;;;;;;;;4206877;28;1056;-65
2022/01/10 10:20:18;;;;;;;;;;;;;;;;;;4207011;28;955;-63
2022/01/10 10:22:38;;;;;;;;;;;;;;;;;;4206770;28;955;-57
2022/01/10 10:24:59;;;;;;;;;;;;;;;;;;4207263;28;841;-58
2022/01/10 10:27:20;;;;;;;;;;;;;;;;;;4207159;28;953;-58
2022/01/10 10:29:41;;;;;;;;;;;;;;;;;;4206851;28;1905;-62
2022/01/10 10:32:02;;;;;;;;;;;;;;;;;;4206793;28;1194;-57
2022/01/10 10:34:23;;;;;;;;;;;;;;;;;;4206908;28;1282;-57
2022/01/10 10:36:43;;;;;;;;;;;;;;;;;;4206548;28;1083;-57
2022/01/10 10:39:06;;;;;;;;;;;;;;;;;;4207104;28;922;-59
2022/01/10 10:41:26;;;;;;;;;;;;;;;;;;4206595;28;1140;-57
2022/01/10 10:43:49;;;;;;;;;;;;;;;;;;4205998;28;1073;-57
2022/01/10 10:46:12;;;;;;;;;;;;;;;;;;4206613;28;993;-58
2022/01/10 10:48:34;;;;;;;;;;;;;;;;;;4206750;28;1141;-58
2022/01/10 10:50:54;;;;;;;;;;;;;;;;;;4205799;28;2592;-59
2022/01/10 10:53:15;;;;;;;;;;;;;;;;;;4209531;28;2356;-58
2022/01/10 10:55:35;;;;;;;;;;;;;;;;;;4216563;28;1714;-58
2022/01/10 10:57:56;;;;;;;;;;;;;;;;;;4214473;28;2128;-58
2022/01/10 11:00:16;;;;;;;;;;;;;;;;;;4222748;28;1383;-57
2022/01/10 11:02:36;;;;;;;;;;;;;;;;;;4221186;28;1586;-57
2022/01/10 11:05:01;;;;;;;;;;;;;;;;;;4221269;28;1582;-58
2022/01/10 11:07:24;;;;;;;;;;;;;;;;;;4222406;28;1996;-57
2022/01/10 11:09:44;;;;;;;;;;;;;;;;;;4211674;28;2432;-57
2022/01/10 11:12:05;;;;;;;;;;;;;;;;;;4210341;28;2452;-57
2022/01/10 11:14:25;;;;;;;;;;;;;;;;;;4214901;28;2119;-57
2022/01/10 11:16:46;;;;;;;;;;;;;;;;;;4207355;28;2361;-57
2022/01/10 11:19:06;;;;;;;;;;;;;;;;;;4221593;28;1660;-58
2022/01/10 11:21:26;;;;;;;;;;;;;;;;;;4217968;28;2221;-57
2022/01/10 11:23:48;;;;;;;;;;;;;;;;;;4213692;28;2249;-57
2022/01/10 11:26:09;;;;;;;;;;;;;;;;;;4215549;28;1789;-58
2022/01/10 11:28:31;;;;;;;;;;;;;;;;;;4217619;28;1851;-58
2022/01/10 11:30:51;;;;;;;;;;;;;;;;;;4221392;28;1963;-57
2022/01/10 11:33:12;;;;;;;;;;;;;;;;;;4222116;28;1775;-58
2022/01/10 11:35:33;;;;;;;;;;;;;;;;;;4221555;28;1481;-57
2022/01/10 11:37:53;;;;;;;;;;;;;;;;;;4222175;28;1769;-58
2022/01/10 11:40:14;;;;;;;;;;;;;;;;;;4204071;28;1953;-58
2022/01/10 11:42:34;;;;;;;;;;;;;;;;;;4222031;28;2008;-57
2022/01/10 11:44:55;;;;;;;;;;;;;;;;;;4209073;28;2256;-58
2022/01/10 11:47:16;;;;;;;;;;;;;;;;;;4208166;28;1705;-57
2022/01/10 11:49:36;;;;;;;;;;;;;;;;;;4205479;28;1906;-57
2022/01/10 11:51:57;;;;;;;;;;;;;;;;;;4205002;28;987;-58
2022/01/10 11:54:18;;;;;;;;;;;;;;;;;;4205975;28;1018;-58
2022/01/10 11:56:38;;;;;;;;;;;;;;;;;;4205195;28;994;-57
2022/01/10 11:58:58;;;;;;;;;;;;;;;;;;4205946;28;995;-57
2022/01/10 12:01:19;;;;;;;;;;;;;;;;;;4205554;28;966;-57
2022/01/10 12:03:39;;;;;;;;;;;;;;;;;;4205924;28;1359;-57
2022/01/10 12:05:59;;;;;;;;;;;;;;;;;;4205844;28;1036;-58
2022/01/10 12:08:19;;;;;;;;;;;;;;;;;;4205499;28;1081;-57
2022/01/10 12:10:40;;;;;;;;;;;;;;;;;;4205571;28;1987;-57
2022/01/10 12:13:01;;;;;;;;;;;;;;;;;;4205719;28;834;-58
2022/01/10 12:15:21;;;;;;;;;;;;;;;;;;4205551;28;1032;-57
2022/01/10 12:17:42;;;;;;;;;;;;;;;;;;4205494;28;1000;-58
2022/01/10 12:20:06;;;;;;;;;;;;;;;;;;4205613;28;1001;-58
2022/01/10 12:22:26;;;;;;;;;;;;;;;;;;4205389;28;1050;-58
2022/01/10 12:24:47;;;;;;;;;;;;;;;;;;4205620;28;1219;-57
2022/01/10 12:27:07;;;;;;;;;;;;;;;;;;4205244;28;1620;-58
2022/01/10 12:29:28;;;;;;;;;;;;;;;;;;4205557;28;937;-58
2022/01/10 12:31:48;;;;;;;;;;;;;;;;;;4205323;28;1140;-59
2022/01/10 12:34:09;;;;;;;;;;;;;;;;;;4205261;28;1003;-57
2022/01/10 12:36:29;;;;;;;;;;;;;;;;;;4205280;28;1111;-58
2022/01/10 12:38:49;;;;;;;;;;;;;;;;;;4201908;28;2828;-58
2022/01/10 12:41:10;;;;;;;;;;;;;;;;;;4209953;28;2384;-57
2022/01/10 12:43:30;;;;;;;;;;;;;;;;;;4212905;28;2103;-57
2022/01/10 12:45:51;;;;;;;;;;;;;;;;;;4208363;28;2535;-58
2022/01/10 12:48:11;;;;;;;;;;;;;;;;;;4217176;28;1806;-57
2022/01/10 12:50:32;;;;;;;;;;;;;;;;;;4215466;28;1882;-58
2022/01/10 12:52:53;;;;;;;;;;;;;;;;;;4221569;28;1750;-57
2022/01/10 12:55:13;;;;;;;;;;;;;;;;;;4207365;28;2110;-57
2022/01/10 12:57:33;;;;;;;;;;;;;;;;;;4219922;28;2346;-57
2022/01/10 12:59:56;;;;;;;;;;;;;;;;;;4213508;28;2365;-58
2022/01/10 13:02:18;;;;;;;;;;;;;;;;;;4218021;28;1646;-57
2022/01/10 13:04:38;;;;;;;;;;;;;;;;;;4220449;28;1825;-57
2022/01/10 13:06:59;;;;;;;;;;;;;;;;;;4220163;28;1391;-58
2022/01/10 13:09:23;;;;;;;;;;;;;;;;;;4219084;28;1785;-58
2022/01/10 13:11:45;;;;;;;;;;;;;;;;;;4217652;28;1973;-58
2022/01/10 13:14:05;;;;;;;;;;;;;;;;;;4217370;28;1690;-58
2022/01/10 13:16:25;;;;;;;;;;;;;;;;;;4219296;28;1754;-58
2022/01/10 13:18:46;;;;;;;;;;;;;;;;;;4218309;28;1730;-58
2022/01/10 13:21:06;;;;;;;;;;;;;;;;;;4216013;28;1473;-58
2022/01/10 13:23:33;;;;;;;;;;;;;;;;;;4215673;28;1799;-58
2022/01/10 13:25:55;;;;;;;;;;;;;;;;;;4218370;28;1977;-58
2022/01/10 13:28:17;;;;;;;;;;;;;;;;;;4220407;28;1358;-58
2022/01/10 13:30:39;;;;;;;;;;;;;;;;;;4202082;28;2382;-58
2022/01/10 13:32:59;;;;;;;;;;;;;;;;;;4207011;28;2364;-58
2022/01/10 13:35:20;;;;;;;;;;;;;;;;;;4210514;28;2347;-58
2022/01/10 13:37:40;;;;;;;;;;;;;;;;;;4220196;28;1622;-58
2022/01/10 13:40:01;;;;;;;;;;;;;;;;;;4221099;28;1829;-58
2022/01/10 13:42:22;;;;;;;;;;;;;;;;;;4210630;28;2397;-58
2022/01/10 13:44:42;;;;;;;;;;;;;;;;;;4215510;28;1706;-58
2022/01/10 13:47:02;;;;;;;;;;;;;;;;;;4217304;28;1774;-58
2022/01/10 13:49:23;;;;;;;;;;;;;;;;;;4217880;28;1783;-58
2022/01/10 13:51:44;;;;;;;;;;;;;;;;;;4215575;28;2249;-61
2022/01/10 13:54:04;;;;;;;;;;;;;;;;;;4218839;28;1569;-58
2022/01/10 13:56:26;;;;;;;;;;;;;;;;;;4204683;28;1074;-58
2022/01/10 13:58:46;;;;;;;;;;;;;;;;;;4204507;28;1272;-58
2022/01/10 14:01:07;;;;;;;;;;;;;;;;;;4203544;28;2309;-58
2022/01/10 14:03:27;;;;;;;;;;;;;;;;;;4207971;28;1766;-58
2022/01/10 14:05:48;;;;;;;;;;;;;;;;;;4211847;28;931;-58
2022/01/10 14:08:08;;;;;;;;;;;;;;;;;;4221118;28;1171;-58
2022/01/10 14:10:29;;;;;;;;;;;;;;;;;;4220854;28;1902;-58
2022/01/10 14:12:49;;;;;;;;;;;;;;;;;;4220795;28;1079;-58
2022/01/10 14:15:09;;;;;;;;;;;;;;;;;;4221230;28;943;-58
2022/01/10 14:17:30;;;;;;;;;;;;;;;;;;4204013;28;2312;-58
2022/01/10 14:19:50;;;;;;;;;;;;;;;;;;4206627;28;1279;-58
2022/01/10 14:22:10;;;;;;;;;;;;;;;;;;4207252;28;944;-58
2022/01/10 14:24:31;;;;;;;;;;;;;;;;;;4207274;28;1018;-58
2022/01/10 14:26:51;;;;;;;;;;;;;;;;;;4206823;28;2450;-58
2022/01/10 14:29:12;;;;;;;;;;;;;;;;;;4206885;28;1170;-59
2022/01/10 14:31:32;;;;;;;;;;;;;;;;;;4206496;28;2352;-58
2022/01/10 14:33:53;;;;;;;;;;;;;;;;;;4207430;28;2075;-58
2022/01/10 14:36:14;;;;;;;;;;;;;;;;;;4208831;28;2264;-59
2022/01/10 14:38:36;;;;;;;;;;;;;;;;;;4216451;28;2446;-59
2022/01/10 14:40:56;;;;;;;;;;;;;;;;;;4216162;28;1946;-58
2022/01/10 14:43:16;;;;;;;;;;;;;;;;;;4221328;28;1012;-58
2022/01/10 14:45:37;;;;;;;;;;;;;;;;;;4207113;28;945;-59
2022/01/10 14:47:58;;;;;;;;;;;;;;;;;;4211069;28;2716;-58
2022/01/10 14:50:19;;;;;;;;;;;;;;;;;;4209375;28;2517;-58
2022/01/10 14:52:39;;;;;;;;;;;;;;;;;;4205626;28;2325;-58
2022/01/10 14:55:00;;;;;;;;;;;;;;;;;;4209705;28;2556;-58
2022/01/10 14:57:20;;;;;;;;;;;;;;;;;;4214892;28;2320;-58
2022/01/10 14:59:41;;;;;;;;;;;;;;;;;;4219919;28;1712;-58
2022/01/10 15:02:01;;;;;;;;;;;;;;;;;;4220338;28;1790;-58
2022/01/10 15:04:21;;;;;;;;;;;;;;;;;;4222838;28;1373;-58
2022/01/10 15:06:42;;;;;;;;;;;;;;;;;;4223036;28;2311;-58
2022/01/10 15:09:03;;;;;;;;;;;;;;;;;;4223138;28;1578;-58
2022/01/10 15:11:23;;;;;;;;;;;;;;;;;;4212662;28;1971;-58
2022/01/10 15:13:44;;;;;;;;;;;;;;;;;;4206550;28;1030;-61
2022/01/10 15:16:04;;;;;;;;;;;;;;;;;;4206496;28;1012;-58
2022/01/10 15:18:24;;;;;;;;;;;;;;;;;;4215481;28;1783;-58
2022/01/10 15:20:45;;;;;;;;;;;;;;;;;;4219334;28;1831;-58
2022/01/10 15:23:05;;;;;;;;;;;;;;;;;;4217550;28;2020;-58
2022/01/10 15:25:26;;;;;;;;;;;;;;;;;;4221188;28;1709;-58
2022/01/10 15:27:46;;;;;;;;;;;;;;;;;;4217917;28;1816;-58
2022/01/10 15:30:06;;;;;;;;;;;;;;;;;;4211911;28;1967;-58
2022/01/10 15:32:26;;;;;;;;;;;;;;;;;;4213220;28;2039;-58
2022/01/10 15:34:47;;;;;;;;;;;;;;;;;;4200103;28;1814;-58
2022/01/10 15:37:07;;;;;;;;;;;;;;;;;;4206321;28;2034;-58
2022/01/10 15:39:27;;;;;;;;;;;;;;;;;;4215772;28;1786;-58
2022/01/10 15:41:48;;;;;;;;;;;;;;;;;;4219467;28;1764;-58
2022/01/10 15:44:08;;;;;;;;;;;;;;;;;;4217488;28;2229;-58
2022/01/10 15:46:28;;;;;;;;;;;;;;;;;;4219704;28;1943;-58
2022/01/10 15:48:48;;;;;;;;;;;;;;;;;;4217907;28;1734;-58
2022/01/10 15:51:09;;;;;;;;;;;;;;;;;;4219265;28;1938;-58
2022/01/10 15:53:31;;;;;;;;;;;;;;;;;;4215063;28;2395;-58
2022/01/10 15:55:51;;;;;;;;;;;;;;;;;;4220912;28;1348;-58
2022/01/10 15:58:12;;;;;;;;;;;;;;;;;;4218307;28;1603;-58
2022/01/10 16:00:32;;;;;;;;;;;;;;;;;;4216846;28;1401;-58
2022/01/10 16:02:53;;;;;;;;;;;;;;;;;;4219412;28;1816;-58
2022/01/10 16:05:13;;;;;;;;;;;;;;;;;;4220445;28;1565;-58
2022/01/10 16:07:34;;;;;;;;;;;;;;;;;;4215185;28;2086;-58
2022/01/10 16:09:54;;;;;;;;;;;;;;;;;;4219047;28;1537;-57
2022/01/10 16:12:15;;;;;;;;;;;;;;;;;;4216937;28;1909;-57
2022/01/10 16:14:36;;;;;;;;;;;;;;;;;;4213380;28;1388;-58
2022/01/10 16:16:58;;;;;;;;;;;;;;;;;;4222275;28;1199;-59
2022/01/10 16:19:18;;;;;;;;;;;;;;;;;;4221880;28;1244;-58
2022/01/10 16:21:39;;;;;;;;;;;;;;;;;;4222024;28;1129;-57
2022/01/10 16:23:59;;;;;;;;;;;;;;;;;;4222314;28;823;-58
2022/01/10 16:26:19;;;;;;;;;;;;;;;;;;4205997;28;2117;-58
2022/01/10 16:28:40;;;;;;;;;;;;;;;;;;4205451;28;1087;-58
2022/01/10 16:31:00;;;;;;;;;;;;;;;;;;4205440;28;1076;-60